createdAt,value
2023-02-12T00:01:27.139Z,98228.94
2023-02-12T00:03:53.784Z,98236.56
2023-02-12T00:06:20.764Z,98232.28
2023-02-12T00:08:52.975Z,98232.19
2023-02-12T00:11:26.362Z,98236.28
2023-02-12T00:13:53.647Z,98224.63
2023-02-12T00:16:27.107Z,98237.19
2023-02-12T00:18:55.396Z,98237.25
2023-02-12T00:21:38.108Z,98234.72
2023-02-12T00:24:04.738Z,98231.38
2023-02-12T00:26:31.286Z,98231.63
2023-02-12T00:28:58.495Z,98220.84
2023-02-12T00:31:28.133Z,98224.38
2023-02-12T00:33:55.221Z,98228.34
2023-02-12T00:36:24.937Z,98223.28
2023-02-12T00:38:53.554Z,98219.94
2023-02-12T00:41:21.237Z,98215.69
2023-02-12T00:43:48.714Z,98216.53
2023-02-12T00:46:15.317Z,98209.91
2023-02-12T00:48:43.482Z,98211.84
2023-02-12T00:51:10.357Z,98217.00
2023-02-12T00:53:44.833Z,98210.47
2023-02-12T00:56:12.750Z,98213.16
2023-02-12T00:58:42.515Z,98208.81
2023-02-12T01:01:09.127Z,98211.91
2023-02-12T01:03:37.132Z,98217.53
2023-02-12T01:06:03.665Z,98219.00
2023-02-12T01:08:30.332Z,98212.25
2023-02-12T01:10:59.797Z,98220.66
2023-02-12T01:13:26.871Z,98211.56
2023-02-12T01:16:09.070Z,98219.94
2023-02-12T01:18:37.122Z,98217.47
2023-02-12T01:21:13.223Z,98219.16
2023-02-12T01:23:40.881Z,98216.47
2023-02-12T01:26:11.521Z,98213.09
2023-02-12T01:28:40.264Z,98211.31
2023-02-12T01:31:13.149Z,98217.97
2023-02-12T01:33:39.929Z,98203.63
2023-02-12T01:36:07.359Z,98205.50
2023-02-12T01:38:34.260Z,98206.34
2023-02-12T01:41:22.175Z,98206.53
2023-02-12T01:44:25.956Z,98210.06
2023-02-12T01:46:58.363Z,98207.59
2023-02-12T01:49:29.389Z,98200.84
2023-02-12T01:52:01.215Z,98187.53
2023-02-12T01:54:28.993Z,98191.88
2023-02-12T01:56:57.169Z,98192.94
2023-02-12T01:59:24.376Z,98192.06
2023-02-12T02:01:51.025Z,98192.94
2023-02-12T02:04:22.570Z,98192.09
2023-02-12T02:06:56.285Z,98196.16
2023-02-12T02:09:24.443Z,98196.09
2023-02-12T02:12:09.620Z,98200.19
2023-02-12T02:14:38.604Z,98201.00
2023-02-12T02:17:17.893Z,98193.56
2023-02-12T02:20:03.181Z,98203.63
2023-02-12T02:22:41.898Z,98199.44
2023-02-12T02:25:22.068Z,98202.81
2023-02-12T02:27:48.519Z,98200.28
2023-02-12T02:30:45.044Z,98197.38
2023-02-12T02:33:25.834Z,98188.97
2023-02-12T02:35:56.027Z,98194.78
2023-02-12T02:38:42.989Z,98194.03
2023-02-12T02:41:39.438Z,98197.31
2023-02-12T02:44:18.877Z,98187.56
2023-02-12T02:46:48.748Z,98193.34
2023-02-12T02:49:24.349Z,98175.75
2023-02-12T02:52:01.470Z,98178.22
2023-02-12T02:54:34.710Z,98179.09
2023-02-12T02:57:08.642Z,98178.25
2023-02-12T02:59:43.662Z,98173.16
2023-02-12T03:02:20.329Z,98173.16
2023-02-12T03:04:52.121Z,98179.81
2023-02-12T03:07:21.344Z,98179.09
2023-02-12T03:09:57.983Z,98182.50
2023-02-12T03:12:43.769Z,98177.47
2023-02-12T03:15:19.845Z,98176.63
2023-02-12T03:17:49.269Z,98182.38
2023-02-12T03:20:20.723Z,98181.66
2023-02-12T03:23:09.129Z,98190.78
2023-02-12T03:25:41.607Z,98185.06
2023-02-12T03:28:22.632Z,98183.31
2023-02-12T03:31:11.865Z,98184.09
2023-02-12T03:33:53.402Z,98177.63
2023-02-12T03:36:28.933Z,98175.25
2023-02-12T03:39:05.506Z,98179.38
2023-02-12T03:41:42.641Z,98179.34
2023-02-12T03:44:48.364Z,98170.97
2023-02-12T03:47:56.694Z,98162.50
2023-02-12T03:50:37.515Z,98168.38
2023-02-12T03:53:08.978Z,98161.69
2023-02-12T03:55:41.312Z,98166.63
2023-02-12T03:58:12.885Z,98163.25
2023-02-12T04:00:40.089Z,98171.06
2023-02-12T04:03:07.596Z,98166.94
2023-02-12T04:05:34.112Z,98167.84
2023-02-12T04:08:04.566Z,98170.22
2023-02-12T04:10:52.445Z,98164.31
2023-02-12T04:13:32.639Z,98165.19
2023-02-12T04:16:07.296Z,98175.91
2023-02-12T04:18:46.671Z,98170.88
2023-02-12T04:21:19.384Z,98173.38
2023-02-12T04:24:20.720Z,98172.66
2023-02-12T04:27:14.556Z,98176.00
2023-02-12T04:29:53.445Z,98172.50
2023-02-12T04:32:43.770Z,98174.97
2023-02-12T04:35:21.943Z,98175.19
2023-02-12T04:37:57.400Z,98177.84
2023-02-12T04:40:24.263Z,98187.66
2023-02-12T04:42:52.914Z,98179.28
2023-02-12T04:45:23.910Z,98177.66
2023-02-12T04:47:50.492Z,98172.59
2023-02-12T04:50:17.190Z,98176.78
2023-02-12T04:52:44.312Z,98179.25
2023-02-12T04:55:10.863Z,98172.66
2023-02-12T04:57:37.348Z,98177.75
2023-02-12T05:00:06.411Z,98175.31
2023-02-12T05:02:36.006Z,98169.44
2023-02-12T05:05:03.495Z,98175.25
2023-02-12T05:07:30.139Z,98170.31
2023-02-12T05:09:56.697Z,98174.44
2023-02-12T05:12:39.750Z,98173.81
2023-02-12T05:15:06.842Z,98176.22
2023-02-12T05:17:33.609Z,98176.34
2023-02-12T05:20:00.931Z,98175.66
2023-02-12T05:22:27.541Z,98185.59
2023-02-12T05:24:54.011Z,98186.41
2023-02-12T05:27:20.541Z,98186.34
2023-02-12T05:29:47.104Z,98193.16
2023-02-12T05:32:14.104Z,98199.13
2023-02-12T05:34:40.671Z,98196.63
2023-02-12T05:37:07.182Z,98186.59
2023-02-12T05:39:33.672Z,98195.56
2023-02-12T05:42:00.206Z,98193.81
2023-02-12T05:44:26.707Z,98188.84
2023-02-12T05:46:54.996Z,98204.59
2023-02-12T05:49:21.561Z,98201.22
2023-02-12T05:51:50.114Z,98194.50
2023-02-12T05:54:16.588Z,98193.81
2023-02-12T05:56:46.412Z,98204.78
2023-02-12T05:59:17.454Z,98208.13
2023-02-12T06:01:46.087Z,98213.84
2023-02-12T06:04:25.503Z,98219.56
2023-02-12T06:06:54.008Z,98216.38
2023-02-12T06:09:20.651Z,98228.09
2023-02-12T06:11:47.674Z,98218.09
2023-02-12T06:14:16.721Z,98225.56
2023-02-12T06:16:48.190Z,98226.44
2023-02-12T06:19:19.469Z,98231.38
2023-02-12T06:21:49.975Z,98224.78
2023-02-12T06:24:17.615Z,98234.03
2023-02-12T06:26:45.454Z,98238.16
2023-02-12T06:29:15.590Z,98236.00
2023-02-12T06:31:42.963Z,98235.34
2023-02-12T06:34:12.068Z,98242.81
2023-02-12T06:36:57.360Z,98240.25
2023-02-12T06:39:24.393Z,98237.84
2023-02-12T06:41:50.897Z,98239.47
2023-02-12T06:44:17.502Z,98239.31
2023-02-12T06:46:44.917Z,98242.59
2023-02-12T06:49:13.417Z,98233.38
2023-02-12T06:51:41.383Z,98235.75
2023-02-12T06:54:16.527Z,98236.50
2023-02-12T06:56:48.241Z,98226.28
2023-02-12T06:59:17.112Z,98237.03
2023-02-12T07:01:45.484Z,98232.81
2023-02-12T07:04:12.158Z,98235.28
2023-02-12T07:06:39.401Z,98236.13
2023-02-12T07:09:06.438Z,98236.78
2023-02-12T07:11:39.075Z,98232.59
2023-02-12T07:14:07.367Z,98230.03
2023-02-12T07:16:34.022Z,98235.72
2023-02-12T07:19:00.574Z,98222.38
2023-02-12T07:21:27.030Z,98221.50
2023-02-12T07:23:53.731Z,98219.75
2023-02-12T07:26:21.790Z,98211.50
2023-02-12T07:28:49.070Z,98211.53
2023-02-12T07:31:22.442Z,98203.25
2023-02-12T07:33:49.689Z,98203.91
2023-02-12T07:36:19.305Z,98196.38
2023-02-12T07:38:46.694Z,98199.59
2023-02-12T07:41:16.576Z,98203.00
2023-02-12T07:43:45.488Z,98199.66
2023-02-12T07:46:17.188Z,98185.44
2023-02-12T07:48:46.446Z,98187.06
2023-02-12T07:51:18.199Z,98187.91
2023-02-12T07:53:45.271Z,98187.81
2023-02-12T07:56:18.029Z,98186.97
2023-02-12T07:58:47.600Z,98186.28
2023-02-12T08:01:18.589Z,98186.53
2023-02-12T08:03:46.780Z,98184.72
2023-02-12T08:06:23.355Z,98174.69
2023-02-12T08:08:59.640Z,98187.97
2023-02-12T08:11:28.424Z,98181.13
2023-02-12T08:13:55.135Z,98191.03
2023-02-12T08:16:24.284Z,98185.66
2023-02-12T08:18:51.643Z,98182.78
2023-02-12T08:21:25.848Z,98182.59
2023-02-12T08:23:54.453Z,98184.69
2023-02-12T08:26:31.226Z,98177.78
2023-02-12T08:29:09.485Z,98176.16
2023-02-12T08:31:39.839Z,98179.19
2023-02-12T08:34:06.564Z,98176.09
2023-02-12T08:36:38.461Z,98174.69
2023-02-12T08:43:21.525Z,98184.34
2023-02-12T08:45:48.119Z,98178.34
2023-02-12T08:48:15.360Z,98183.19
2023-02-12T08:50:43.934Z,98178.63
2023-02-12T08:53:22.648Z,98176.72
2023-02-12T08:55:50.041Z,98180.94
2023-02-12T08:58:20.556Z,98189.16
2023-02-12T09:00:47.716Z,98172.84
2023-02-12T09:03:15.100Z,98170.53
2023-02-12T09:05:42.326Z,98171.88
2023-02-12T09:08:09.280Z,98180.50
2023-02-12T09:10:40.905Z,98184.56
2023-02-12T09:13:08.681Z,98184.72
2023-02-12T09:15:44.944Z,98187.16
2023-02-12T09:18:13.523Z,98184.94
2023-02-12T09:20:43.329Z,98181.31
2023-02-12T09:23:13.078Z,98186.63
2023-02-12T09:25:45.336Z,98180.47
2023-02-12T09:28:14.767Z,98176.56
2023-02-12T09:30:41.669Z,98176.81
2023-02-12T09:33:10.130Z,98179.09
2023-02-12T09:35:37.961Z,98171.56
2023-02-12T09:38:05.624Z,98171.66
2023-02-12T09:40:55.457Z,98167.91
2023-02-12T09:43:32.184Z,98169.72
2023-02-12T09:46:06.440Z,98174.44
2023-02-12T09:48:33.633Z,98171.25
2023-02-12T09:51:03.343Z,98177.38
2023-02-12T09:53:32.165Z,98178.50
2023-02-12T09:55:59.291Z,98181.50
2023-02-12T09:59:06.205Z,98174.44
2023-02-12T10:01:33.373Z,98172.69
2023-02-12T10:04:00.849Z,98171.44
2023-02-12T10:06:52.857Z,98171.63
2023-02-12T10:10:00.938Z,98170.44
2023-02-12T10:12:39.776Z,98160.44
2023-02-12T10:15:32.016Z,98169.50
2023-02-12T10:18:09.017Z,98155.13
2023-02-12T10:20:47.947Z,98150.00
2023-02-12T10:23:25.250Z,98160.59
2023-02-12T10:25:56.424Z,98153.84
2023-02-12T10:28:31.483Z,98143.97
2023-02-12T10:31:02.105Z,98143.78
2023-02-12T10:33:35.529Z,98142.16
2023-02-12T10:36:07.155Z,98139.09
2023-02-12T10:38:40.133Z,98131.31
2023-02-12T10:41:06.584Z,98133.72
2023-02-12T10:43:33.139Z,98127.75
2023-02-12T10:45:59.656Z,98123.78
2023-02-12T10:48:36.952Z,98121.53
2023-02-12T10:51:09.916Z,98119.59
2023-02-12T10:53:45.322Z,98110.13
2023-02-12T10:56:14.802Z,98106.78
2023-02-12T10:58:50.489Z,98105.03
2023-02-12T11:01:30.732Z,98098.84
2023-02-12T11:03:59.059Z,98087.06
2023-02-12T11:06:31.064Z,98082.13
2023-02-12T11:08:59.228Z,98080.66
2023-02-12T11:11:33.445Z,98068.69
2023-02-12T11:14:07.127Z,98067.78
2023-02-12T11:16:37.659Z,98059.53
2023-02-12T11:19:06.980Z,98058.78
2023-02-12T11:21:34.871Z,98049.00
2023-02-12T11:24:26.272Z,98046.59
2023-02-12T11:27:12.412Z,98029.97
2023-02-12T11:29:39.270Z,98039.81
2023-02-12T11:32:10.471Z,98035.25
2023-02-12T11:34:37.181Z,98025.44
2023-02-12T11:37:05.159Z,98014.28
2023-02-12T11:39:38.129Z,98002.94
2023-02-12T11:42:20.001Z,97991.22
2023-02-12T11:44:57.811Z,97996.66
2023-02-12T11:47:30.164Z,97989.50
2023-02-12T11:50:15.984Z,97989.91
2023-02-12T11:52:43.385Z,97988.94
2023-02-12T11:55:22.377Z,97985.72
2023-02-12T11:57:51.706Z,97982.25
2023-02-12T12:00:18.402Z,97982.94
2023-02-12T12:02:53.578Z,97992.44
2023-02-12T12:05:22.114Z,97983.81
2023-02-12T12:08:16.766Z,97981.31
2023-02-12T12:11:01.899Z,97980.31
2023-02-12T12:13:35.384Z,97976.94
2023-02-12T12:16:30.732Z,97970.44
2023-02-12T12:19:23.354Z,97972.38
2023-02-12T12:22:03.026Z,97968.16
2023-02-12T12:24:44.659Z,97963.97
2023-02-12T12:27:45.198Z,97965.88
2023-02-12T12:30:37.988Z,97962.13
2023-02-12T12:33:12.976Z,97945.56
2023-02-12T12:35:44.726Z,97940.50
2023-02-12T12:38:27.942Z,97952.03
2023-02-12T12:41:08.462Z,97944.69
2023-02-12T12:43:40.296Z,97957.53
2023-02-12T12:46:34.187Z,97951.00
2023-02-12T12:49:03.624Z,97957.97
2023-02-12T12:51:35.972Z,97952.81
2023-02-12T12:54:11.411Z,97945.53
2023-02-12T12:57:06.111Z,97940.75
2023-02-12T12:59:55.571Z,97949.66
2023-02-12T13:02:34.151Z,97946.25
2023-02-12T13:05:33.358Z,97924.59
2023-02-12T13:08:04.913Z,97935.63
2023-02-12T13:10:46.327Z,97933.53
2023-02-12T13:13:19.146Z,97928.72
2023-02-12T13:15:51.377Z,97932.78
2023-02-12T13:18:41.683Z,97920.38
2023-02-12T13:21:45.487Z,97929.03
2023-02-12T13:24:26.904Z,97932.56
2023-02-12T13:27:03.080Z,97935.34
2023-02-12T13:29:33.940Z,97933.59
2023-02-12T13:32:31.990Z,97933.00
2023-02-12T13:35:00.739Z,97934.75
2023-02-12T13:37:41.769Z,97936.16
2023-02-12T13:40:18.607Z,97933.44
2023-02-12T13:42:54.218Z,97930.22
2023-02-12T13:45:29.755Z,97925.84
2023-02-12T13:48:32.002Z,97927.72
2023-02-12T13:51:22.890Z,97915.75
2023-02-12T13:54:04.579Z,97919.66
2023-02-12T13:57:00.460Z,97917.72
2023-02-12T13:59:33.016Z,97910.50
2023-02-12T14:02:02.305Z,97905.31
2023-02-12T14:04:37.709Z,97909.34
2023-02-12T14:07:06.953Z,97916.53
2023-02-12T14:09:40.501Z,97906.16
2023-02-12T14:12:14.839Z,97914.84
2023-02-12T14:14:51.508Z,97915.56
2023-02-12T14:17:33.234Z,97919.25
2023-02-12T14:20:21.402Z,97921.13
2023-02-12T14:22:47.972Z,97919.84
2023-02-12T14:25:14.992Z,97917.59
2023-02-12T14:27:41.718Z,97909.19
2023-02-12T14:30:11.599Z,97916.78
2023-02-12T14:32:50.198Z,97910.41
2023-02-12T14:35:41.098Z,97908.53
2023-02-12T14:38:19.808Z,97905.97
2023-02-12T14:40:50.845Z,97913.34
2023-02-12T14:43:54.896Z,97917.56
2023-02-12T14:46:24.770Z,97919.66
2023-02-12T14:48:57.997Z,97923.03
2023-02-12T14:51:43.575Z,97925.13
2023-02-12T14:54:25.891Z,97945.78
2023-02-12T14:56:55.597Z,97959.88
2023-02-12T14:59:25.958Z,97969.06
2023-02-12T15:01:54.670Z,97970.25
2023-02-12T15:04:34.850Z,97983.06
2023-02-12T15:07:08.365Z,97983.63
2023-02-12T15:10:13.157Z,97989.00
2023-02-12T15:12:45.860Z,97993.19
2023-02-12T15:15:19.866Z,97993.53
2023-02-12T15:17:58.154Z,97996.72
2023-02-12T15:20:33.498Z,97992.56
2023-02-12T15:23:00.012Z,97997.63
2023-02-12T15:25:32.245Z,97991.56
2023-02-12T15:28:17.479Z,97993.28
2023-02-12T15:30:46.013Z,98003.84
2023-02-12T15:33:31.674Z,97999.91
2023-02-12T15:35:59.670Z,98005.34
2023-02-12T15:38:45.147Z,98002.25
2023-02-12T15:41:33.380Z,98004.50
2023-02-12T15:44:01.499Z,97997.31
2023-02-12T15:46:29.900Z,98006.63
2023-02-12T15:48:56.560Z,97999.94
2023-02-12T15:51:38.470Z,98007.25
2023-02-12T15:54:07.274Z,97999.13
2023-02-12T15:56:36.238Z,98003.97
2023-02-12T15:59:03.705Z,98011.47
2023-02-12T16:01:33.246Z,98016.97
2023-02-12T16:04:06.747Z,98018.53
2023-02-12T16:06:36.651Z,98022.00
2023-02-12T16:09:27.537Z,98028.28
2023-02-12T16:11:55.611Z,98018.34
2023-02-12T16:14:31.934Z,98042.41
2023-02-12T16:16:59.950Z,98040.38
2023-02-12T16:19:28.972Z,98028.03
2023-02-12T16:22:19.519Z,98038.91
2023-02-12T16:24:49.251Z,98036.03
2023-02-12T16:27:15.712Z,98044.50
2023-02-12T16:29:48.401Z,98045.34
2023-02-12T16:32:36.485Z,98050.50
2023-02-12T16:35:05.912Z,98055.28
2023-02-12T16:37:44.575Z,98057.38
2023-02-12T16:40:14.288Z,98065.03
2023-02-12T16:42:46.832Z,98062.03
2023-02-12T16:45:28.476Z,98063.59
2023-02-12T16:48:17.116Z,98071.41
2023-02-12T16:50:50.041Z,98073.00
2023-02-12T16:53:26.461Z,98067.81
2023-02-12T16:55:53.075Z,98074.63
2023-02-12T16:58:19.520Z,98076.59
2023-02-12T17:00:46.852Z,98084.84
2023-02-12T17:03:16.014Z,98088.28
2023-02-12T17:05:45.341Z,98086.94
2023-02-12T17:08:20.327Z,98090.44
2023-02-12T17:10:48.283Z,98082.25
2023-02-12T17:13:15.612Z,98087.75
2023-02-12T17:16:03.481Z,98083.31
2023-02-12T17:18:33.302Z,98084.63
2023-02-12T17:21:02.619Z,98087.78
2023-02-12T17:23:30.438Z,98086.91
2023-02-12T17:25:57.583Z,98091.59
2023-02-12T17:28:25.424Z,98090.94
2023-02-12T17:30:53.560Z,98089.34
2023-02-12T17:33:20.446Z,98091.16
2023-02-12T17:35:46.970Z,98100.44
2023-02-12T17:38:14.287Z,98100.47
2023-02-12T17:40:40.818Z,98087.28
2023-02-12T17:43:07.762Z,98100.44
2023-02-12T17:45:34.464Z,98098.97
2023-02-12T17:48:01.023Z,98099.00
2023-02-12T17:50:27.461Z,98098.03
2023-02-12T17:52:54.611Z,98100.44
2023-02-12T17:55:21.082Z,98091.25
2023-02-12T17:57:51.979Z,98094.72
2023-02-12T18:00:19.129Z,98089.13
2023-02-12T18:02:46.094Z,98084.59
2023-02-12T18:05:13.934Z,98082.47
2023-02-12T18:07:40.696Z,98080.38
2023-02-12T18:10:10.137Z,98088.41
2023-02-12T18:12:40.609Z,98082.34
2023-02-12T18:15:08.737Z,98079.66
2023-02-12T18:17:36.324Z,98084.50
2023-02-12T18:20:03.139Z,98074.47
2023-02-12T18:22:30.344Z,98078.25
2023-02-12T18:24:57.590Z,98073.44
2023-02-12T18:27:25.048Z,98066.72
2023-02-12T18:29:52.820Z,98064.94
2023-02-12T18:32:19.339Z,98068.16
2023-02-12T18:34:45.863Z,98067.19
2023-02-12T18:37:14.559Z,98078.63
2023-02-12T18:39:40.962Z,98081.44
2023-02-12T18:42:08.049Z,98094.47
2023-02-12T18:44:35.104Z,98078.88
2023-02-12T18:47:01.797Z,98077.84
2023-02-12T18:49:28.793Z,98066.09
2023-02-12T18:51:55.256Z,98074.72
2023-02-12T18:54:21.815Z,98074.69
2023-02-12T18:56:52.022Z,98076.63
2023-02-12T18:59:19.625Z,98084.16
2023-02-12T19:01:47.369Z,98084.13
2023-02-12T19:04:16.111Z,98073.81
2023-02-12T19:06:46.669Z,98072.09
2023-02-12T19:09:16.590Z,98072.09
2023-02-12T19:11:46.468Z,98073.16
2023-02-12T19:14:14.653Z,98073.66
2023-02-12T19:16:41.433Z,98069.69
2023-02-12T19:19:08.438Z,98067.97
2023-02-12T19:21:35.278Z,98061.81
2023-02-12T19:24:03.864Z,98063.97
2023-02-12T19:26:32.189Z,98064.94
2023-02-12T19:28:59.170Z,98064.97
2023-02-12T19:31:35.294Z,98057.72
2023-02-12T19:34:05.104Z,98062.84
2023-02-12T19:36:33.569Z,98056.19
2023-02-12T19:39:00.221Z,98052.81
2023-02-12T19:41:28.949Z,98052.94
2023-02-12T19:43:58.162Z,98058.16
2023-02-12T19:46:27.067Z,98061.69
2023-02-12T19:48:57.042Z,98060.06
2023-02-12T19:51:25.192Z,98062.31
2023-02-12T19:53:52.561Z,98061.63
2023-02-12T19:56:19.156Z,98062.13
2023-02-12T19:58:45.967Z,98066.59
2023-02-12T20:01:16.226Z,98076.38
2023-02-12T20:03:43.932Z,98067.03
2023-02-12T20:06:14.783Z,98068.53
2023-02-12T20:08:43.699Z,98069.31
2023-02-12T20:11:13.482Z,98062.81
2023-02-12T20:13:40.558Z,98066.03
2023-02-12T20:16:11.539Z,98072.66
2023-02-12T20:18:38.936Z,98070.88
2023-02-12T20:21:14.682Z,98071.03
2023-02-12T20:23:41.523Z,98065.94
2023-02-12T20:26:10.488Z,98062.72
2023-02-12T20:28:38.478Z,98065.94
2023-02-12T20:31:16.319Z,98071.69
2023-02-12T20:33:44.184Z,98066.03
2023-02-12T20:36:13.128Z,98070.97
2023-02-12T20:38:43.259Z,98059.19
2023-02-12T20:41:13.702Z,98066.97
2023-02-12T20:43:40.190Z,98061.28
2023-02-12T20:46:16.116Z,98069.19
2023-02-12T20:48:43.297Z,98069.13
2023-02-12T20:51:17.781Z,98074.19
2023-02-12T20:53:45.696Z,98078.28
2023-02-12T20:56:34.581Z,98064.94
2023-02-12T20:59:02.018Z,98077.59
2023-02-12T21:01:40.690Z,98071.75
2023-02-12T21:04:11.233Z,98075.34
2023-02-12T21:06:40.228Z,98069.31
2023-02-12T21:09:09.681Z,98075.03
2023-02-12T21:11:37.131Z,98079.16
2023-02-12T21:16:44.863Z,98083.63
2023-02-12T21:19:13.143Z,98083.25
2023-02-12T21:21:46.124Z,98094.56
2023-02-12T21:24:15.885Z,98088.38
2023-02-12T21:26:44.149Z,98087.38
2023-02-12T21:29:10.765Z,98093.31
2023-02-12T21:31:40.308Z,98093.28
2023-02-12T21:34:08.405Z,98090.88
2023-02-12T21:36:37.665Z,98090.06
2023-02-12T21:39:24.642Z,98090.78
2023-02-12T21:42:03.106Z,98089.97
2023-02-12T21:44:32.070Z,98099.91
2023-02-12T21:46:59.475Z,98101.53
2023-02-12T21:49:27.837Z,98107.50
2023-02-12T21:51:58.480Z,98116.81
2023-02-12T21:54:26.056Z,98125.22
2023-02-12T21:56:54.305Z,98126.97
2023-02-12T21:59:21.438Z,98126.00
2023-02-12T22:04:47.522Z,98137.13
2023-02-12T22:07:15.870Z,98133.69
2023-02-12T22:09:43.152Z,98138.75
2023-02-12T22:12:10.013Z,98146.19
2023-02-12T22:14:40.159Z,98140.50
2023-02-12T22:17:06.840Z,98141.50
2023-02-12T22:19:33.416Z,98138.94
2023-02-12T22:21:59.898Z,98135.69
2023-02-12T22:24:26.578Z,98139.09
2023-02-12T22:26:57.415Z,98140.75
2023-02-12T22:29:24.030Z,98148.19
2023-02-12T22:31:50.805Z,98148.94
2023-02-12T22:34:21.301Z,98152.19
2023-02-12T22:36:48.165Z,98155.44
2023-02-12T22:39:15.011Z,98156.94
2023-02-12T22:41:45.081Z,98157.75
2023-02-12T22:44:19.466Z,98158.75
2023-02-12T22:47:04.265Z,98159.63
2023-02-12T22:49:31.221Z,98160.56
2023-02-12T22:51:57.831Z,98170.88
2023-02-12T22:54:24.342Z,98168.81
2023-02-12T22:56:53.621Z,98178.88
2023-02-12T22:59:21.053Z,98172.41
2023-02-12T23:01:48.094Z,98179.03
2023-02-12T23:04:17.394Z,98183.09
2023-02-12T23:06:45.083Z,98176.03
2023-02-12T23:09:20.606Z,98170.19
2023-02-12T23:11:48.058Z,98180.56
2023-02-12T23:14:14.622Z,98180.59
2023-02-12T23:16:43.814Z,98186.31
2023-02-12T23:19:10.922Z,98177.69
2023-02-12T23:21:38.154Z,98179.22
2023-02-12T23:24:05.046Z,98183.34
2023-02-12T23:26:36.834Z,98184.19
2023-02-12T23:29:03.276Z,98185.88
2023-02-12T23:31:30.097Z,98173.53
2023-02-12T23:33:56.624Z,98183.50
2023-02-12T23:36:23.107Z,98180.81
2023-02-12T23:38:50.743Z,98180.44
2023-02-12T23:41:17.332Z,98183.13
2023-02-12T23:43:45.467Z,98179.91
2023-02-12T23:46:11.990Z,98177.47
2023-02-12T23:48:38.542Z,98186.53
2023-02-12T23:51:05.445Z,98175.78
2023-02-12T23:53:32.654Z,98170.19
2023-02-12T23:56:03.201Z,98171.22
2023-02-12T23:58:30.183Z,98161.97
